Ura — EALY — position and weather

sailwx.info

Track history (hours):
 
Tides and Currents Weather Stations Pressure Air Temp Water Temp Dewpoint Dewpoint Depression Visibility Wind Speed Wind Dir Waves Ship Positions

Ura

Last reported at 2018-Jun-22 17:31 UTC. Time now 2018-Jun-22 22:52 UTC.
Position N 38°59' E 000°24'.

Length 120 m; draft 6.9 m.

Type: Ship. MMSI: 225313000.

Date/timePositionNaut miles runAvg speedWind from/ knotsBaromVisibWave heightAir tempDewpointWater temp
2018-Jun-22 17:31N 38°59' E 000°24'010.6
2018-Jun-22 17:29N 38°58' E 000°24'510.5
2018-Jun-22 16:59N 38°53' E 000°25'510.4
2018-Jun-22 16:30N 38°48' E 000°26'610.4
2018-Jun-22 15:58N 38°43' E 000°27'510.2
2018-Jun-22 15:30N 38°38' E 000°24'510.2
2018-Jun-22 15:00N 38°34' E 000°21'510.1
2018-Jun-22 14:29N 38°30' E 000°17'5 9.9
2018-Jun-22 14:00N 38°26' E 000°13'5 9.9
2018-Jun-22 13:30N 38°21' E 000°10'6 9.9
2018-Jun-22 12:53N 38°16' E 000°06'410.1
2018-Jun-22 12:28N 38°13' E 000°03'5 9.8
2018-Jun-22 12:00N 38°09' W 000°01'5 9.8
2018-Jun-22 11:28N 38°05' W 000°04'5 9.7
2018-Jun-22 10:57N 38°01' W 000°08'4 9.7
2018-Jun-22 10:30N 37°57' W 000°11'5 9.7
2018-Jun-22 10:01N 37°53' W 000°14'5 9.6
2018-Jun-22 09:30N 37°49' W 000°18'510.2
2018-Jun-22 09:01N 37°45' W 000°21'510.2
2018-Jun-22 08:31N 37°41' W 000°25'510.2
2018-Jun-22 08:01N 37°36' W 000°28'510.2
2018-Jun-22 07:29N 37°32' W 000°33'4 9.0
2018-Jun-22 07:00N 37°30' W 000°37'5 8.8
2018-Jun-22 06:29N 37°27' W 000°42'4 8.7
2018-Jun-22 06:00N 37°26' W 000°47'5 9.3
2018-Jun-22 05:31N 37°24' W 000°52'5 9.5
2018-Jun-22 05:00N 37°22' W 000°57'5 9.6
2018-Jun-22 04:29N 37°20' W 001°03'6 9.7
2018-Jun-22 03:50N 37°16' W 001°10'5 0.1
2018-Jun-20 00:11N 37°20' W 001°06'210.8
2018-Jun-19 23:58N 37°21' W 001°03'710.6
2018-Jun-19 23:18N 37°24' W 000°55'410.6
2018-Jun-19 22:55N 37°26' W 000°51'510.7
2018-Jun-19 22:27N 37°29' W 000°45'910.8
2018-Jun-19 21:34N 37°34' W 000°35'110.9
2018-Jun-19 21:30N 37°34' W 000°34'610.6
2018-Jun-19 20:59N 37°37' W 000°28'510.5
2018-Jun-19 20:30N 37°39' W 000°23'610.8
2018-Jun-19 19:56N 37°42' W 000°16'17310.5
2018-Jun-19 03:27N 39°04' E 002°58'2210.8
2018-Jun-19 01:24N 39°21' E 003°18'510.9
2018-Jun-19 00:56N 39°25' E 003°22'510.8
2018-Jun-19 00:28N 39°29' E 003°25'4 0.2
2018-Jun-18 02:43N 39°26' E 003°22'2 9.1
2018-Jun-18 02:29N 39°24' E 003°21'13 9.1
2018-Jun-18 01:07N 39°14' E 003°11'1 9.1
2018-Jun-18 01:00N 39°13' E 003°10'5 9.1
2018-Jun-18 00:26N 39°09' E 003°06'4 9.2
2018-Jun-18 00:00N 39°06' E 003°02'5 9.3
2018-Jun-17 23:30N 39°04' E 002°57'27 9.6
2018-Jun-17 20:44N 38°50' E 002°27'310.4
2018-Jun-17 20:25N 38°49' E 002°24'2810.3
2018-Jun-17 17:44N 38°35' E 001°53'41 9.9
2018-Jun-17 13:37N 38°14' E 001°08'1 9.9
2018-Jun-17 13:30N 38°14' E 001°07'9 9.7
2018-Jun-17 12:33N 38°09' E 000°57'1 9.6
2018-Jun-17 12:30N 38°09' E 000°56'9 9.5
2018-Jun-17 11:33N 38°04' E 000°46'1 9.6
2018-Jun-17 11:27N 38°04' E 000°45'5 9.5
2018-Jun-17 10:58N 38°02' E 000°40'4 9.5
2018-Jun-17 10:30N 37°59' E 000°35'5 9.5
2018-Jun-17 10:00N 37°57' E 000°30'5 9.7
2018-Jun-17 09:28N 37°55' E 000°24'5 9.7
2018-Jun-17 09:00N 37°52' E 000°19'20 9.6
2018-Jun-17 06:55N 37°42' W 000°02'4 9.2
2018-Jun-17 06:30N 37°40' W 000°06'5 9.3
2018-Jun-17 06:00N 37°38' W 000°12'5 9.3
2018-Jun-17 05:30N 37°35' W 000°17'5 9.8
2018-Jun-17 05:00N 37°33' W 000°22'5 9.6
2018-Jun-17 04:30N 37°30' W 000°27'5 9.5
2018-Jun-17 04:00N 37°28' W 000°32'5 9.3
2018-Jun-17 03:30N 37°26' W 000°38'5 9.2
2018-Jun-17 03:00N 37°24' W 000°43'5 9.2
2018-Jun-17 02:30N 37°22' W 000°48'5 9.3
2018-Jun-17 01:56N 37°20' W 000°54'4 9.4
2018-Jun-17 01:28N 37°18' W 000°59'5 9.6
2018-Jun-17 00:56N 37°16' W 001°05'9 0.4
2018-Jun-16 00:54N 37°15' W 001°17'1010.8
2018-Jun-15 23:59N 37°20' W 001°06'1110.5
2018-Jun-15 22:56N 37°25' W 000°53'510.2
2018-Jun-15 22:27N 37°27' W 000°48'3 5.9
2018-Jun-15 21:59N 37°26' W 000°51'510.7
2018-Jun-15 21:30N 37°24' W 000°57'510.6
2018-Jun-15 21:00N 37°21' W 001°03'2 3.7
2018-Jun-15 20:29N 37°20' W 001°05'810.2
2018-Jun-15 19:41N 37°24' W 000°56'410.1
2018-Jun-15 19:19N 37°26' W 000°52'3 9.9
2018-Jun-15 19:00N 37°27' W 000°48'6 9.7
2018-Jun-15 18:24N 37°30' W 000°42'410.2
2018-Jun-15 18:00N 37°32' W 000°38'510.2
2018-Jun-15 17:30N 37°36' W 000°33'510.2
2018-Jun-15 17:00N 37°40' W 000°29'510.0
2018-Jun-15 16:29N 37°44' W 000°25'5 9.9
2018-Jun-15 16:00N 37°48' W 000°22'5 9.7
2018-Jun-15 15:30N 37°52' W 000°19'5 9.7
2018-Jun-15 15:00N 37°56' W 000°16'5 9.9
2018-Jun-15 14:30N 38°01' W 000°12'5 9.9
2018-Jun-15 14:00N 38°05' W 000°09'510.1
2018-Jun-15 13:30N 38°09' W 000°05'510.0
2018-Jun-15 13:00N 38°13' W 000°02'710.2
2018-Jun-15 12:19N 38°19' E 000°03'310.2
2018-Jun-15 12:00N 38°22' E 000°05'510.3
2018-Jun-15 11:29N 38°26' E 000°09'910.4
2018-Jun-15 10:40N 38°33' E 000°15'310.2
2018-Jun-15 10:23N 38°36' E 000°17'710.8
2018-Jun-15 09:42N 38°42' E 000°22'211.5
2018-Jun-15 09:30N 38°44' E 000°24'16711.1
2018-Jun-14 18:29N 41°11' E 002°06'510.6
2018-Jun-14 18:00N 41°15' E 002°10'5 9.8
2018-Jun-14 17:30N 41°20' E 002°10'1 2.2
2018-Jun-14 16:49N 41°22' E 002°10'0 0.0
2018-Jun-14 14:52N 41°22' E 002°10'0 0.0
2018-Jun-14 14:28N 41°22' E 002°10'0 0.0
2018-Jun-14 13:55N 41°22' E 002°10'0 0.0
2018-Jun-14 13:28N 41°22' E 002°10'0 0.0
2018-Jun-14 12:58N 41°22' E 002°10'0 0.0
2018-Jun-14 12:28N 41°22' E 002°10'0 0.0
2018-Jun-14 11:58N 41°22' E 002°10'0 0.0
2018-Jun-14 11:28N 41°22' E 002°10'0 0.0
2018-Jun-14 10:58N 41°22' E 002°10'0 0.0
2018-Jun-14 10:22N 41°22' E 002°10'0 0.0
2018-Jun-14 09:58N 41°22' E 002°10'0 0.0
2018-Jun-14 09:28N 41°22' E 002°10'0 0.0
2018-Jun-14 08:58N 41°22' E 002°10'0 0.0
2018-Jun-14 08:28N 41°22' E 002°10'0 0.0
2018-Jun-14 07:58N 41°22' E 002°10'0 0.0
2018-Jun-14 07:28N 41°22' E 002°10'0 0.0
2018-Jun-14 06:52N 41°22' E 002°10'0 0.0
2018-Jun-14 06:28N 41°22' E 002°10'0 0.0
2018-Jun-14 05:58N 41°22' E 002°10'0 0.0
2018-Jun-14 05:28N 41°22' E 002°10'0 0.0
2018-Jun-14 04:58N 41°22' E 002°10'0 0.0
2018-Jun-14 04:30N 41°22' E 002°10'1 1.3
2018-Jun-14 04:00N 41°21' E 002°10'4 7.8
2018-Jun-14 03:30N 41°17' E 002°11'3 5.8
2018-Jun-14 03:00N 41°15' E 002°13'1 2.4
2018-Jun-14 02:30N 41°14' E 002°14'510.1
2018-Jun-14 02:00N 41°09' E 002°18'5710.8
2018-Jun-13 20:41N 40°21' E 002°58'  
Track history (hours):
 
Tides and Currents Weather Stations Pressure Air Temp Water Temp Dewpoint Dewpoint Depression Visibility Wind Speed Wind Dir Waves Ship Positions

Ura

Last reported at 2018-Jun-22 17:31 UTC. Time now 2018-Jun-22 22:52 UTC.
Position N 38°59' E 000°24'.

Length 120 m; draft 6.9 m.

Type: Ship. MMSI: 225313000.

Date/timePositionNaut miles runAvg speedWind from/ knotsBaromVisibWave heightAir tempDewpointWater temp
2018-Jun-22 17:31N 38°59' E 000°24'010.6
2018-Jun-22 17:29N 38°58' E 000°24'510.5
2018-Jun-22 16:59N 38°53' E 000°25'510.4
2018-Jun-22 16:30N 38°48' E 000°26'610.4
2018-Jun-22 15:58N 38°43' E 000°27'510.2
2018-Jun-22 15:30N 38°38' E 000°24'510.2
2018-Jun-22 15:00N 38°34' E 000°21'510.1
2018-Jun-22 14:29N 38°30' E 000°17'5 9.9
2018-Jun-22 14:00N 38°26' E 000°13'5 9.9
2018-Jun-22 13:30N 38°21' E 000°10'6 9.9
2018-Jun-22 12:53N 38°16' E 000°06'410.1
2018-Jun-22 12:28N 38°13' E 000°03'5 9.8
2018-Jun-22 12:00N 38°09' W 000°01'5 9.8
2018-Jun-22 11:28N 38°05' W 000°04'5 9.7
2018-Jun-22 10:57N 38°01' W 000°08'4 9.7
2018-Jun-22 10:30N 37°57' W 000°11'5 9.7
2018-Jun-22 10:01N 37°53' W 000°14'5 9.6
2018-Jun-22 09:30N 37°49' W 000°18'510.2
2018-Jun-22 09:01N 37°45' W 000°21'510.2
2018-Jun-22 08:31N 37°41' W 000°25'510.2
2018-Jun-22 08:01N 37°36' W 000°28'510.2
2018-Jun-22 07:29N 37°32' W 000°33'4 9.0
2018-Jun-22 07:00N 37°30' W 000°37'5 8.8
2018-Jun-22 06:29N 37°27' W 000°42'4 8.7
2018-Jun-22 06:00N 37°26' W 000°47'5 9.3
2018-Jun-22 05:31N 37°24' W 000°52'5 9.5
2018-Jun-22 05:00N 37°22' W 000°57'5 9.6
2018-Jun-22 04:29N 37°20' W 001°03'6 9.7
2018-Jun-22 03:50N 37°16' W 001°10'5 0.1
2018-Jun-20 00:11N 37°20' W 001°06'210.8
2018-Jun-19 23:58N 37°21' W 001°03'710.6
2018-Jun-19 23:18N 37°24' W 000°55'410.6
2018-Jun-19 22:55N 37°26' W 000°51'510.7
2018-Jun-19 22:27N 37°29' W 000°45'910.8
2018-Jun-19 21:34N 37°34' W 000°35'110.9
2018-Jun-19 21:30N 37°34' W 000°34'610.6
2018-Jun-19 20:59N 37°37' W 000°28'510.5
2018-Jun-19 20:30N 37°39' W 000°23'610.8
2018-Jun-19 19:56N 37°42' W 000°16'17310.5
2018-Jun-19 03:27N 39°04' E 002°58'2210.8
2018-Jun-19 01:24N 39°21' E 003°18'510.9
2018-Jun-19 00:56N 39°25' E 003°22'510.8
2018-Jun-19 00:28N 39°29' E 003°25'4 0.2
2018-Jun-18 02:43N 39°26' E 003°22'2 9.1
2018-Jun-18 02:29N 39°24' E 003°21'13 9.1
2018-Jun-18 01:07N 39°14' E 003°11'1 9.1
2018-Jun-18 01:00N 39°13' E 003°10'5 9.1
2018-Jun-18 00:26N 39°09' E 003°06'4 9.2
2018-Jun-18 00:00N 39°06' E 003°02'5 9.3
2018-Jun-17 23:30N 39°04' E 002°57'27 9.6
2018-Jun-17 20:44N 38°50' E 002°27'310.4
2018-Jun-17 20:25N 38°49' E 002°24'2810.3
2018-Jun-17 17:44N 38°35' E 001°53'41 9.9
2018-Jun-17 13:37N 38°14' E 001°08'1 9.9
2018-Jun-17 13:30N 38°14' E 001°07'9 9.7
2018-Jun-17 12:33N 38°09' E 000°57'1 9.6
2018-Jun-17 12:30N 38°09' E 000°56'9 9.5
2018-Jun-17 11:33N 38°04' E 000°46'1 9.6
2018-Jun-17 11:27N 38°04' E 000°45'5 9.5
2018-Jun-17 10:58N 38°02' E 000°40'4 9.5
2018-Jun-17 10:30N 37°59' E 000°35'5 9.5
2018-Jun-17 10:00N 37°57' E 000°30'5 9.7
2018-Jun-17 09:28N 37°55' E 000°24'5 9.7
2018-Jun-17 09:00N 37°52' E 000°19'20 9.6
2018-Jun-17 06:55N 37°42' W 000°02'4 9.2
2018-Jun-17 06:30N 37°40' W 000°06'5 9.3
2018-Jun-17 06:00N 37°38' W 000°12'5 9.3
2018-Jun-17 05:30N 37°35' W 000°17'5 9.8
2018-Jun-17 05:00N 37°33' W 000°22'5 9.6
2018-Jun-17 04:30N 37°30' W 000°27'5 9.5
2018-Jun-17 04:00N 37°28' W 000°32'5 9.3
2018-Jun-17 03:30N 37°26' W 000°38'5 9.2
2018-Jun-17 03:00N 37°24' W 000°43'5 9.2
2018-Jun-17 02:30N 37°22' W 000°48'5 9.3
2018-Jun-17 01:56N 37°20' W 000°54'4 9.4
2018-Jun-17 01:28N 37°18' W 000°59'5 9.6
2018-Jun-17 00:56N 37°16' W 001°05'9 0.4
2018-Jun-16 00:54N 37°15' W 001°17'1010.8
2018-Jun-15 23:59N 37°20' W 001°06'1110.5
2018-Jun-15 22:56N 37°25' W 000°53'510.2
2018-Jun-15 22:27N 37°27' W 000°48'3 5.9
2018-Jun-15 21:59N 37°26' W 000°51'510.7
2018-Jun-15 21:30N 37°24' W 000°57'510.6
2018-Jun-15 21:00N 37°21' W 001°03'2 3.7
2018-Jun-15 20:29N 37°20' W 001°05'810.2
2018-Jun-15 19:41N 37°24' W 000°56'410.1
2018-Jun-15 19:19N 37°26' W 000°52'3 9.9
2018-Jun-15 19:00N 37°27' W 000°48'6 9.7
2018-Jun-15 18:24N 37°30' W 000°42'410.2
2018-Jun-15 18:00N 37°32' W 000°38'510.2
2018-Jun-15 17:30N 37°36' W 000°33'510.2
2018-Jun-15 17:00N 37°40' W 000°29'510.0
2018-Jun-15 16:29N 37°44' W 000°25'5 9.9
2018-Jun-15 16:00N 37°48' W 000°22'5 9.7
2018-Jun-15 15:30N 37°52' W 000°19'5 9.7
2018-Jun-15 15:00N 37°56' W 000°16'5 9.9
2018-Jun-15 14:30N 38°01' W 000°12'5 9.9
2018-Jun-15 14:00N 38°05' W 000°09'510.1
2018-Jun-15 13:30N 38°09' W 000°05'510.0
2018-Jun-15 13:00N 38°13' W 000°02'710.2
2018-Jun-15 12:19N 38°19' E 000°03'310.2
2018-Jun-15 12:00N 38°22' E 000°05'510.3
2018-Jun-15 11:29N 38°26' E 000°09'910.4
2018-Jun-15 10:40N 38°33' E 000°15'310.2
2018-Jun-15 10:23N 38°36' E 000°17'710.8
2018-Jun-15 09:42N 38°42' E 000°22'211.5
2018-Jun-15 09:30N 38°44' E 000°24'16711.1
2018-Jun-14 18:29N 41°11' E 002°06'510.6
2018-Jun-14 18:00N 41°15' E 002°10'5 9.8
2018-Jun-14 17:30N 41°20' E 002°10'1 2.2
2018-Jun-14 16:49N 41°22' E 002°10'0 0.0
2018-Jun-14 14:52N 41°22' E 002°10'0 0.0
2018-Jun-14 14:28N 41°22' E 002°10'0 0.0
2018-Jun-14 13:55N 41°22' E 002°10'0 0.0
2018-Jun-14 13:28N 41°22' E 002°10'0 0.0
2018-Jun-14 12:58N 41°22' E 002°10'0 0.0
2018-Jun-14 12:28N 41°22' E 002°10'0 0.0
2018-Jun-14 11:58N 41°22' E 002°10'0 0.0
2018-Jun-14 11:28N 41°22' E 002°10'0 0.0
2018-Jun-14 10:58N 41°22' E 002°10'0 0.0
2018-Jun-14 10:22N 41°22' E 002°10'0 0.0
2018-Jun-14 09:58N 41°22' E 002°10'0 0.0
2018-Jun-14 09:28N 41°22' E 002°10'0 0.0
2018-Jun-14 08:58N 41°22' E 002°10'0 0.0
2018-Jun-14 08:28N 41°22' E 002°10'0 0.0
2018-Jun-14 07:58N 41°22' E 002°10'0 0.0
2018-Jun-14 07:28N 41°22' E 002°10'0 0.0
2018-Jun-14 06:52N 41°22' E 002°10'0 0.0
2018-Jun-14 06:28N 41°22' E 002°10'0 0.0
2018-Jun-14 05:58N 41°22' E 002°10'0 0.0
2018-Jun-14 05:28N 41°22' E 002°10'0 0.0
2018-Jun-14 04:58N 41°22' E 002°10'0 0.0
2018-Jun-14 04:30N 41°22' E 002°10'1 1.3
2018-Jun-14 04:00N 41°21' E 002°10'4 7.8
2018-Jun-14 03:30N 41°17' E 002°11'3 5.8
2018-Jun-14 03:00N 41°15' E 002°13'1 2.4
2018-Jun-14 02:30N 41°14' E 002°14'510.1
2018-Jun-14 02:00N 41°09' E 002°18'5710.8
2018-Jun-13 20:41N 40°21' E 002°58'  

Dump ship's entire track history